createdAt,value
2023-04-01T00:08:40.248Z,20.73
2023-04-01T00:23:40.393Z,22.16
2023-04-01T00:38:40.828Z,22.88
2023-04-01T00:53:40.542Z,23.91
2023-04-01T01:08:40.646Z,21.14
2023-04-01T01:23:41.217Z,20.52
2023-04-01T01:38:40.852Z,22.37
2023-04-01T01:53:40.953Z,21.03
2023-04-01T02:08:41.030Z,21.44
2023-04-01T02:23:41.643Z,20.73
2023-04-01T02:38:42.198Z,20.53
2023-04-01T02:53:42.383Z,20.84
2023-04-01T03:08:42.404Z,21.25
2023-04-01T03:23:42.997Z,21.97
2023-04-01T03:38:42.602Z,21.76
2023-04-01T03:53:42.696Z,19.62
2023-04-01T04:08:42.784Z,20.12
2023-04-01T04:23:42.931Z,19.81
2023-04-01T04:38:42.991Z,18.79
2023-04-01T04:53:43.080Z,19.09
2023-04-01T05:08:43.605Z,17.86
2023-04-01T05:23:43.339Z,18.06
2023-04-01T05:38:43.747Z,18.88
2023-04-01T05:53:43.464Z,19.59
2023-04-01T06:08:43.540Z,19.38
2023-04-01T06:23:43.709Z,19.48
2023-04-01T06:38:43.732Z,17.94
2023-04-01T06:53:43.846Z,20.09
2023-04-01T07:08:43.912Z,22.05
2023-04-01T07:23:44.106Z,27.31
2023-04-01T07:38:44.552Z,31.22
2023-04-01T07:53:44.192Z,28.77
2023-04-01T08:08:44.258Z,27.75
2023-04-01T08:23:44.427Z,27.14
2023-04-01T08:38:44.424Z,28.36
2023-04-01T08:53:44.558Z,29.69
2023-04-01T09:08:45.068Z,34.73
2023-04-01T09:23:44.761Z,43.13
2023-04-01T09:38:44.847Z,44.35
2023-04-01T09:53:44.958Z,52.12
2023-04-01T10:08:45.032Z,53.69
2023-04-01T10:23:45.180Z,56.77
2023-04-01T10:38:45.195Z,61.39
2023-04-01T10:53:45.329Z,67.03
2023-04-01T11:08:45.387Z,68.16
2023-04-01T11:23:49.306Z,63.54
2023-04-01T11:38:51.008Z,61.11
2023-04-01T11:53:50.672Z,57.54
2023-04-01T12:08:50.837Z,57.10
2023-04-01T12:23:51.205Z,55.49
2023-04-01T12:38:51.065Z,61.65
2023-04-01T12:53:51.771Z,51.50
2023-04-01T13:08:52.632Z,60.09
2023-04-01T13:23:53.391Z,61.56
2023-04-01T13:38:54.021Z,64.17
2023-04-01T13:53:54.623Z,59.94
2023-04-01T14:08:54.854Z,63.96
2023-04-01T14:23:55.508Z,57.39
2023-04-01T14:38:56.025Z,63.09
2023-04-01T14:53:56.583Z,63.43
2023-04-01T15:08:56.941Z,61.26
2023-04-01T15:23:57.573Z,61.29
2023-04-01T15:38:58.319Z,66.07
2023-04-01T15:53:58.588Z,63.82
2023-04-01T16:08:58.784Z,68.88
2023-04-01T16:23:59.492Z,69.43
2023-04-01T16:39:00.089Z,70.37
2023-04-01T16:54:00.113Z,63.47
2023-04-01T17:09:00.227Z,60.37
2023-04-01T17:24:00.343Z,65.36
2023-04-01T17:39:00.391Z,59.19
2023-04-01T17:54:00.463Z,61.41
2023-04-01T18:09:00.620Z,57.71
2023-04-01T18:24:02.628Z,53.75
2023-04-01T18:39:02.837Z,49.94
2023-04-01T18:54:02.933Z,49.65
2023-04-01T19:09:03.036Z,52.45
2023-04-01T19:24:03.816Z,53.96
2023-04-01T19:39:04.980Z,56.10
2023-04-01T19:54:05.946Z,63.09
2023-04-01T20:09:05.683Z,63.09
2023-04-01T20:24:05.824Z,69.79
2023-04-01T20:39:05.863Z,75.29
2023-04-01T20:54:05.968Z,84.01
2023-04-01T21:09:06.110Z,85.30
2023-04-01T21:24:06.556Z,85.82
2023-04-01T21:39:06.696Z,87.79
2023-04-01T21:54:07.187Z,91.33
2023-04-01T22:09:06.889Z,94.24
2023-04-01T22:24:06.983Z,97.04
2023-04-01T22:39:07.151Z,93.62
2023-04-01T22:54:07.609Z,96.21
2023-04-01T23:09:07.538Z,98.44
2023-04-01T23:24:07.858Z,97.86
2023-04-01T23:39:08.019Z,98.65
2023-04-01T23:54:08.569Z,98.65
